Time;durP1;ratioP1;P1;durP2;ratioP2;P2;SDS_P1;SDS_P2;PMS_P1;PMS_P2;Temp;Humidity;BMP_temperature;BMP_pressure;BME280_temperature;BME280_humidity;BME280_pressure;Samples;Min_cycle;Max_cycle;Signal;HPM_P1;HPM_P2
2023/12/04 00:01:14;;;;;;;24.55;15.68;;;;;;;-0.29;100.00;101239.88;5042120;28;20029;-59
2023/12/04 00:03:39;;;;;;;24.08;14.95;;;;;;;-0.29;100.00;101240.72;5042688;28;20519;-58
2023/12/04 00:06:05;;;;;;;26.60;16.55;;;;;;;-0.28;100.00;101239.00;5046554;28;20120;-58
2023/12/04 00:08:32;;;;;;;25.23;14.63;;;;;;;-0.28;100.00;101236.38;5041324;28;20082;-59
2023/12/04 00:10:57;;;;;;;23.30;14.65;;;;;;;-0.28;100.00;101229.41;5044655;28;20421;-59
2023/12/04 00:13:22;;;;;;;26.05;14.73;;;;;;;-0.27;100.00;101230.25;5044105;28;20021;-58
2023/12/04 00:15:47;;;;;;;23.27;14.73;;;;;;;-0.26;100.00;101226.75;5044539;28;20040;-59
2023/12/04 00:18:13;;;;;;;24.13;15.18;;;;;;;-0.26;100.00;101221.53;5044641;28;20026;-58
2023/12/04 00:20:38;;;;;;;25.17;15.20;;;;;;;-0.28;100.00;101211.13;5048475;28;20494;-58
2023/12/04 00:23:03;;;;;;;26.08;14.98;;;;;;;-0.25;100.00;101215.41;5040043;28;20681;-57
2023/12/04 00:25:28;;;;;;;24.63;14.93;;;;;;;-0.26;100.00;101216.31;5044913;28;20021;-59
2023/12/04 00:27:54;;;;;;;25.75;14.85;;;;;;;-0.25;100.00;101218.00;5043615;28;20091;-59
2023/12/04 00:30:19;;;;;;;21.48;13.90;;;;;;;-0.26;100.00;101208.47;5044714;28;20021;-58
2023/12/04 00:32:44;;;;;;;24.90;14.57;;;;;;;-0.25;100.00;101208.44;5046240;28;20619;-59
2023/12/04 00:35:09;;;;;;;24.20;15.73;;;;;;;-0.25;100.00;101204.94;5051450;28;20025;-58
2023/12/04 00:37:38;;;;;;;24.42;14.85;;;;;;;-0.25;100.00;101211.06;5042058;28;20542;-59
2023/12/04 00:40:04;;;;;;;25.48;14.40;;;;;;;-0.26;100.00;101206.72;5045221;28;20025;-58
2023/12/04 00:42:30;;;;;;;27.55;15.45;;;;;;;-0.25;100.00;101200.59;5044894;28;20550;-59
2023/12/04 00:44:55;;;;;;;23.63;14.40;;;;;;;-0.23;100.00;101197.97;5048360;28;20155;-59
2023/12/04 00:47:21;;;;;;;24.55;14.95;;;;;;;-0.23;100.00;101197.97;5040235;28;20318;-59
2023/12/04 00:49:46;;;;;;;20.63;13.73;;;;;;;-0.23;100.00;101198.81;5045330;28;20040;-59
2023/12/04 00:52:11;;;;;;;23.20;14.20;;;;;;;-0.22;100.00;101191.81;5044538;28;20025;-58
2023/12/04 00:54:39;;;;;;;21.83;14.10;;;;;;;-0.22;100.00;101191.81;5054612;28;20035;-59
2023/12/04 00:57:05;;;;;;;22.20;13.93;;;;;;;-0.22;100.00;101191.81;5046525;28;20041;-59
2023/12/04 00:59:30;;;;;;;23.17;14.10;;;;;;;-0.23;100.00;101183.16;5051943;28;20071;-59
2023/12/04 01:01:55;;;;;;;24.38;14.88;;;;;;;-0.22;100.00;101173.56;5049243;28;20577;-59
2023/12/04 01:04:21;;;;;;;24.13;14.07;;;;;;;-0.22;100.00;101174.44;5047952;28;20050;-59
2023/12/04 01:06:46;;;;;;;20.63;13.63;;;;;;;-0.21;100.00;101170.06;5045228;28;20549;-59
2023/12/04 01:09:11;;;;;;;24.00;14.68;;;;;;;-0.21;100.00;101163.06;5049308;28;20044;-58
2023/12/04 01:11:36;;;;;;;24.10;14.38;;;;;;;-0.20;100.00;101161.31;5046999;28;20029;-58
2023/12/04 01:14:02;;;;;;;24.35;13.55;;;;;;;-0.21;100.00;101170.91;5050768;28;20073;-59
2023/12/04 01:16:28;;;;;;;22.48;14.57;;;;;;;-0.20;100.00;101167.41;5046962;28;20110;-59
2023/12/04 01:18:53;;;;;;;22.90;14.00;;;;;;;-0.19;100.00;101169.09;5051983;28;20052;-59
2023/12/04 01:21:19;;;;;;;21.70;13.38;;;;;;;-0.18;100.00;101169.97;5048984;28;20104;-59
2023/12/04 01:23:44;;;;;;;21.92;13.55;;;;;;;-0.18;100.00;101159.53;5050531;28;20037;-58
2023/12/04 01:26:10;;;;;;;22.08;13.32;;;;;;;-0.18;100.00;101154.31;5046386;28;20537;-59
2023/12/04 01:28:35;;;;;;;22.02;13.38;;;;;;;-0.17;100.00;101144.72;5050015;28;20535;-59
2023/12/04 01:31:00;;;;;;;21.08;12.70;;;;;;;-0.17;100.00;101150.78;5048532;28;20040;-60
2023/12/04 01:33:26;;;;;;;20.77;12.90;;;;;;;-0.17;100.00;101145.56;5049404;28;20063;-58
2023/12/04 01:35:51;;;;;;;22.58;13.25;;;;;;;-0.17;100.00;101140.34;5045764;28;20522;-59
2023/12/04 01:38:16;;;;;;;20.63;13.43;;;;;;;-0.16;100.00;101147.28;5049301;28;20048;-59
2023/12/04 01:40:42;;;;;;;22.35;14.10;;;;;;;-0.14;100.00;101144.63;5047275;28;20025;-58
2023/12/04 01:43:07;;;;;;;22.10;12.70;;;;;;;-0.15;100.00;101143.78;5046378;28;20028;-59
2023/12/04 01:45:32;;;;;;;20.25;13.18;;;;;;;-0.14;100.00;101148.09;5046733;28;21070;-60
2023/12/04 01:47:58;;;;;;;21.13;13.75;;;;;;;-0.14;100.00;101139.41;5049328;28;20087;-58
2023/12/04 01:50:24;;;;;;;20.08;12.98;;;;;;;-0.14;100.00;101134.19;5045565;28;20033;-58
2023/12/04 01:52:51;;;;;;;20.52;13.23;;;;;;;-0.13;100.00;101128.06;5053569;28;20051;-59
2023/12/04 01:55:17;;;;;;;20.73;13.23;;;;;;;-0.13;100.00;101125.44;5049419;28;20021;-59
2023/12/04 01:57:43;;;;;;;20.02;12.73;;;;;;;-0.12;100.00;101125.41;5053381;28;20053;-59
2023/12/04 02:00:11;;;;;;;20.00;12.93;;;;;;;-0.12;100.00;101119.34;5046865;28;20104;-59
2023/12/04 02:02:40;;;;;;;22.05;12.82;;;;;;;-0.10;100.00;101112.31;5050818;28;20017;-58
2023/12/04 02:05:07;;;;;;;20.23;12.40;;;;;;;-0.10;100.00;101112.31;5046371;28;20033;-59
2023/12/04 02:07:33;;;;;;;20.55;12.65;;;;;;;-0.09;100.00;101100.97;5050871;28;20466;-59
2023/12/04 02:09:58;;;;;;;19.80;12.88;;;;;;;-0.09;100.00;101103.59;5049571;28;20072;-58
2023/12/04 02:12:24;;;;;;;19.45;11.90;;;;;;;-0.08;100.00;101100.09;5051479;28;20049;-58
2023/12/04 02:14:50;;;;;;;21.27;12.35;;;;;;;-0.08;100.00;101097.50;5049651;28;20516;-59
2023/12/04 02:17:16;;;;;;;19.48;12.13;;;;;;;-0.07;100.00;101096.56;5045912;28;20124;-59
2023/12/04 02:19:42;;;;;;;19.27;12.07;;;;;;;-0.06;100.00;101096.53;5048674;28;20029;-59
2023/12/04 02:22:07;;;;;;;18.58;11.80;;;;;;;-0.06;100.00;101091.31;5050101;28;20037;-59
2023/12/04 02:24:34;;;;;;;19.42;12.18;;;;;;;-0.04;100.00;101088.66;5053375;28;20504;-59
2023/12/04 02:27:10;;;;;;;18.45;11.55;;;;;;;-0.04;100.00;101091.25;5049969;28;20037;-59
2023/12/04 02:29:45;;;;;;;19.08;11.70;;;;;;;-0.05;100.00;101086.94;5051991;28;20113;-60
2023/12/04 02:32:15;;;;;;;19.45;12.20;;;;;;;-0.03;100.00;101093.84;5048257;28;20433;-60
2023/12/04 02:34:43;;;;;;;20.83;12.32;;;;;;;-0.02;100.00;101087.72;5051684;28;20040;-59
2023/12/04 02:37:10;;;;;;;17.65;11.07;;;;;;;-0.04;100.00;101073.84;5043189;28;20401;-60
2023/12/04 02:39:36;;;;;;;18.15;11.40;;;;;;;-0.02;100.00;101076.41;5049401;28;20029;-60
2023/12/04 02:42:01;;;;;;;20.58;11.70;;;;;;;-0.01;100.00;101075.50;5046652;28;20116;-60
2023/12/04 02:44:27;;;;;;;17.63;11.02;;;;;;;-0.02;100.00;101066.84;5045629;28;20109;-59
2023/12/04 02:46:52;;;;;;;19.67;11.73;;;;;;;-0.02;100.00;101064.22;5049157;28;20406;-59
2023/12/04 02:49:17;;;;;;;18.95;11.82;;;;;;;-0.01;100.00;101060.69;5045777;28;20022;-58
2023/12/04 02:51:43;;;;;;;19.63;11.75;;;;;;;0.01;100.00;101058.03;5047497;28;20232;-58
2023/12/04 02:54:08;;;;;;;17.38;11.20;;;;;;;-0.01;100.00;101052.00;5046303;28;20518;-58
2023/12/04 02:56:33;;;;;;;19.08;11.40;;;;;;;0.00;100.00;101056.34;5046566;28;20029;-58
2023/12/04 02:58:58;;;;;;;18.08;11.80;;;;;;;-0.01;100.00;101052.00;5045093;28;20432;-58
2023/12/04 03:01:24;;;;;;;18.00;10.95;;;;;;;-0.01;100.00;101046.78;5046118;28;20532;-57
2023/12/04 03:03:49;;;;;;;17.33;11.07;;;;;;;-0.02;100.00;101047.69;5066110;28;20033;-58
2023/12/04 03:06:16;;;;;;;17.30;11.07;;;;;;;-0.01;100.00;101038.94;5045978;28;20403;-58
2023/12/04 03:08:42;;;;;;;16.83;10.80;;;;;;;-0.03;100.00;101036.38;5045968;28;20104;-58
2023/12/04 03:11:07;;;;;;;17.50;11.73;;;;;;;-0.02;100.00;101027.66;5051107;28;20029;-58
2023/12/04 03:13:33;;;;;;;18.63;11.52;;;;;;;-0.02;100.00;101029.41;5048142;28;20053;-58
2023/12/04 03:15:59;;;;;;;18.05;11.50;;;;;;;-0.04;100.00;101020.75;5044076;28;20422;-57
2023/12/04 03:18:25;;;;;;;17.85;11.10;;;;;;;-0.02;100.00;101014.59;5045689;28;20028;-58
2023/12/04 03:20:51;;;;;;;16.67;11.98;;;;;;;-0.03;100.00;101020.72;5044502;28;20051;-58
2023/12/04 03:23:16;;;;;;;17.10;11.30;;;;;;;-0.02;100.00;101008.50;5046910;28;20106;-58
2023/12/04 03:25:41;;;;;;;17.65;11.45;;;;;;;0.00;100.00;101006.72;5045148;28;20031;-59
2023/12/04 03:28:07;;;;;;;17.50;10.88;;;;;;;-0.01;100.00;100995.41;5043824;28;20044;-57
2023/12/04 03:30:32;;;;;;;18.38;10.98;;;;;;;0.02;100.00;100994.47;5048414;28;20029;-58
2023/12/04 03:32:57;;;;;;;16.45;10.40;;;;;;;0.02;100.00;100989.25;5045427;28;20036;-58
2023/12/04 03:35:23;;;;;;;17.92;10.68;;;;;;;0.03;100.00;100988.34;5045818;28;20021;-58
2023/12/04 03:37:49;;;;;;;16.75;10.52;;;;;;;0.04;100.00;100986.59;5047734;28;20090;-59
2023/12/04 03:40:15;;;;;;;16.15;10.43;;;;;;;0.05;100.00;100978.72;5043698;28;20036;-59
2023/12/04 03:42:41;;;;;;;16.10;10.85;;;;;;;0.05;100.00;100972.63;5042406;28;20039;-59
2023/12/04 03:45:06;;;;;;;16.98;9.93;;;;;;;0.06;100.00;100969.97;5046630;28;20116;-58
2023/12/04 03:47:32;;;;;;;15.10;10.35;;;;;;;0.08;100.00;100967.31;5046897;28;20035;-58
2023/12/04 03:49:57;;;;;;;15.85;9.85;;;;;;;0.06;100.00;100964.75;5041346;28;20032;-59
2023/12/04 03:52:22;;;;;;;15.38;10.15;;;;;;;0.07;100.00;100963.84;5047392;28;20028;-58
2023/12/04 03:54:48;;;;;;;17.48;10.25;;;;;;;0.07;100.00;100957.78;5043655;28;20036;-59
2023/12/04 03:57:13;;;;;;;17.00;10.55;;;;;;;0.07;100.00;100961.25;5049016;28;20045;-58
2023/12/04 03:59:38;;;;;;;15.70;10.77;;;;;;;0.09;100.00;100959.44;5043136;28;20025;-58
2023/12/04 04:02:03;;;;;;;17.05;10.65;;;;;;;0.08;100.00;100947.25;5047630;28;20029;-57
2023/12/04 04:04:29;;;;;;;16.15;10.05;;;;;;;0.09;100.00;100950.75;5044884;28;20027;-57
2023/12/04 04:06:54;;;;;;;16.35;10.20;;;;;;;0.11;100.00;100949.78;5048022;28;20547;-58
2023/12/04 04:09:20;;;;;;;16.65;10.43;;;;;;;0.10;100.00;100950.69;5042489;28;20033;-57
2023/12/04 04:11:45;;;;;;;14.55;9.85;;;;;;;0.09;100.00;100941.16;5042421;28;20059;-58
2023/12/04 04:14:10;;;;;;;16.58;9.93;;;;;;;0.08;100.00;100931.59;5043453;28;20036;-59
2023/12/04 04:16:36;;;;;;;16.58;10.15;;;;;;;0.08;100.00;100928.97;5047285;28;20033;-58
2023/12/04 04:19:01;;;;;;;16.20;9.98;;;;;;;0.08;100.00;100931.59;5047548;28;20075;-58
2023/12/04 04:21:26;;;;;;;16.83;10.13;;;;;;;0.07;100.00;100929.06;5047161;28;20028;-58
2023/12/04 04:23:53;;;;;;;17.25;9.90;;;;;;;0.08;100.00;100923.75;5042180;28;20112;-58
2023/12/04 04:26:18;;;;;;;14.48;10.55;;;;;;;0.07;100.00;100924.69;5049677;28;20373;-58
2023/12/04 04:28:44;;;;;;;16.73;10.32;;;;;;;0.08;100.00;100920.31;5046330;28;20029;-59
2023/12/04 04:31:09;;;;;;;15.57;9.73;;;;;;;0.08;100.00;100915.06;5051024;28;20047;-56
2023/12/04 04:33:34;;;;;;;16.23;10.13;;;;;;;0.08;100.00;100915.91;5044695;28;20111;-57
2023/12/04 04:36:00;;;;;;;14.98;9.85;;;;;;;0.09;100.00;100916.78;5047850;28;20021;-55
2023/12/04 04:38:25;;;;;;;17.27;10.05;;;;;;;0.09;100.00;100906.34;5047773;28;20031;-58
2023/12/04 04:40:52;;;;;;;17.52;10.73;;;;;;;0.09;100.00;100899.34;5046762;28;20592;-57
2023/12/04 04:43:18;;;;;;;15.10;9.70;;;;;;;0.09;100.00;100904.59;5045231;28;20021;-59
2023/12/04 04:45:43;;;;;;;17.60;10.68;;;;;;;0.11;100.00;100907.16;5050015;28;20040;-58
2023/12/04 04:48:08;;;;;;;16.27;10.00;;;;;;;0.11;100.00;100909.75;5047238;28;20029;-58
2023/12/04 04:50:33;;;;;;;14.45;9.38;;;;;;;0.09;100.00;100901.97;5045659;28;20021;-57
2023/12/04 04:52:59;;;;;;;16.23;10.00;;;;;;;0.09;100.00;100899.34;5043821;28;20034;-58
2023/12/04 04:55:24;;;;;;;17.65;10.50;;;;;;;0.09;100.00;100899.34;5046020;28;20024;-57
2023/12/04 04:57:49;;;;;;;16.67;10.10;;;;;;;0.10;100.00;100900.22;5043662;28;20068;-58
2023/12/04 05:00:16;;;;;;;15.80;10.18;;;;;;;0.08;100.00;100908.09;5046431;28;20035;-58
2023/12/04 05:02:41;;;;;;;16.20;9.98;;;;;;;0.09;100.00;100899.34;5043663;28;20127;-58
2023/12/04 05:05:06;;;;;;;15.07;9.65;;;;;;;0.10;100.00;100908.03;5046734;28;20097;-57
2023/12/04 05:07:32;;;;;;;15.80;10.18;;;;;;;0.10;100.00;100898.47;5042143;28;20033;-58
2023/12/04 05:09:57;;;;;;;16.08;10.18;;;;;;;0.11;100.00;100899.31;5046371;28;20025;-58
2023/12/04 05:12:22;;;;;;;15.95;10.05;;;;;;;0.12;100.00;100890.59;5044639;28;20028;-58
2023/12/04 05:14:48;;;;;;;13.63;9.25;;;;;;;0.12;100.00;100901.88;5046434;28;20082;-58
2023/12/04 05:17:13;;;;;;;15.75;9.25;;;;;;;0.12;100.00;100890.59;5045672;28;20033;-57
2023/12/04 05:19:38;;;;;;;17.33;10.15;;;;;;;0.12;100.00;100878.38;5046400;28;20057;-57
2023/12/04 05:22:03;;;;;;;15.77;10.32;;;;;;;0.10;100.00;100879.31;5045778;28;20029;-58
2023/12/04 05:24:29;;;;;;;15.63;9.27;;;;;;;0.12;100.00;100882.75;5047242;28;20036;-58
2023/12/04 05:26:54;;;;;;;14.90;9.30;;;;;;;0.12;100.00;100869.69;5043019;28;20025;-59
2023/12/04 05:29:19;;;;;;;14.60;9.25;;;;;;;0.11;100.00;100868.81;5046736;28;20017;-58
2023/12/04 05:31:45;;;;;;;14.75;9.73;;;;;;;0.12;100.00;100861.84;5043881;28;20108;-59
2023/12/04 05:34:10;;;;;;;15.95;9.77;;;;;;;0.11;100.00;100850.53;5047368;28;20029;-57
2023/12/04 05:36:35;;;;;;;17.02;10.38;;;;;;;0.09;100.00;100849.75;5043011;28;20491;-58
2023/12/04 05:39:00;;;;;;;16.15;10.60;;;;;;;0.08;100.00;100849.78;5048778;28;20033;-58
2023/12/04 05:41:26;;;;;;;18.40;10.45;;;;;;;0.06;100.00;100852.44;5048466;28;20500;-58
2023/12/04 05:43:51;;;;;;;16.67;10.43;;;;;;;0.06;100.00;100855.06;5052198;28;20126;-57
2023/12/04 05:46:16;;;;;;;15.55;10.48;;;;;;;0.05;100.00;100861.22;5047936;28;20026;-58
2023/12/04 05:48:42;;;;;;;15.65;10.20;;;;;;;0.04;100.00;100856.88;5051407;28;20017;-57
2023/12/04 05:51:07;;;;;;;15.63;9.93;;;;;;;0.02;100.00;100856.09;5048162;28;20035;-58
2023/12/04 05:53:32;;;;;;;15.65;10.75;;;;;;;0.03;100.00;100849.94;5047633;28;20466;-58
2023/12/04 05:55:58;;;;;;;16.77;10.10;;;;;;;0.03;100.00;100843.88;5046395;28;20060;-59
2023/12/04 05:58:23;;;;;;;16.30;10.77;;;;;;;0.01;100.00;100835.25;5051667;28;20045;-59
2023/12/04 06:00:48;;;;;;;14.70;10.77;;;;;;;0.04;100.00;100837.75;5049017;28;20025;-58
2023/12/04 06:03:13;;;;;;;14.32;10.18;;;;;;;0.03;100.00;100834.25;5047637;28;20032;-59
2023/12/04 06:05:39;;;;;;;14.32;9.50;;;;;;;0.06;100.00;100835.94;5047670;28;20021;-59
2023/12/04 06:08:04;;;;;;;14.27;10.05;;;;;;;0.07;100.00;100837.66;5047893;28;20029;-59
2023/12/04 06:10:30;;;;;;;14.75;10.07;;;;;;;0.08;100.00;100832.34;5049471;28;20032;-59
2023/12/04 06:12:55;;;;;;;14.35;9.98;;;;;;;0.06;100.00;100828.94;5043905;28;20017;-59
2023/12/04 06:15:20;;;;;;;15.13;10.20;;;;;;;0.08;100.00;100821.06;5047301;28;20378;-58
2023/12/04 06:17:46;;;;;;;13.30;9.95;;;;;;;0.08;100.00;100808.84;5047872;28;20079;-59
2023/12/04 06:20:11;;;;;;;13.82;9.60;;;;;;;0.08;100.00;100803.63;5050741;28;20053;-57
2023/12/04 06:22:37;;;;;;;13.30;9.63;;;;;;;0.07;100.00;100795.88;5045141;28;20512;-57
2023/12/04 06:25:02;;;;;;;12.70;9.48;;;;;;;0.06;100.00;100792.38;5052599;28;20116;-58
2023/12/04 06:27:28;;;;;;;13.18;9.70;;;;;;;0.07;100.00;100791.50;5050318;28;20033;-57
2023/12/04 06:29:54;;;;;;;13.38;9.15;;;;;;;0.07;100.00;100786.28;5050795;28;20033;-59
2023/12/04 06:32:19;;;;;;;15.15;10.20;;;;;;;0.07;100.00;100786.28;5050477;28;20026;-59
2023/12/04 06:34:45;;;;;;;14.55;10.15;;;;;;;0.06;100.00;100778.47;5045463;28;20105;-58
2023/12/04 06:37:12;;;;;;;14.63;9.57;;;;;;;0.03;100.00;100775.97;5046690;28;20033;-59
2023/12/04 06:39:38;;;;;;;12.13;8.48;;;;;;;0.04;100.00;100775.94;5051266;28;20495;-59
2023/12/04 06:42:08;;;;;;;12.50;9.02;;;;;;;0.03;100.00;100774.22;5048199;28;20033;-60
2023/12/04 06:44:34;;;;;;;13.40;9.57;;;;;;;0.04;100.00;100770.69;5046399;28;20029;-58
2023/12/04 06:47:03;;;;;;;11.05;8.55;;;;;;;0.02;100.00;100772.53;5051461;28;20489;-58
2023/12/04 06:49:32;;;;;;;11.35;8.43;;;;;;;0.02;100.00;100775.13;5043290;28;20049;-59
2023/12/04 06:52:01;;;;;;;;;;;;;;;0.05;100.00;100775.03;5046358;28;20029;-59
2023/12/04 06:54:26;;;;;;;12.73;8.38;;;;;;;0.02;100.00;100789.91;5040907;28;20008;-58
2023/12/04 06:56:52;;;;;;;10.77;7.88;;;;;;;0.01;100.00;100789.09;5046970;28;20147;-58
2023/12/04 06:59:18;;;;;;;12.27;8.45;;;;;;;0.02;100.00;100789.91;5046947;28;20049;-59
2023/12/04 07:01:43;;;;;;;11.65;8.52;;;;;;;0.01;100.00;100778.63;5047754;28;20084;-58
2023/12/04 07:04:11;;;;;;;12.10;8.32;;;;;;;0.02;100.00;100766.41;5048054;28;20025;-59
2023/12/04 07:06:38;;;;;;;14.35;8.73;;;;;;;0.03;100.00;100770.75;5048714;28;20064;-58
2023/12/04 07:09:04;;;;;;;11.70;8.23;;;;;;;0.03;100.00;100757.69;5047312;28;20032;-60
2023/12/04 07:11:29;;;;;;;10.65;8.10;;;;;;;0.01;100.00;100760.34;5042299;28;20078;-59
2023/12/04 07:13:55;;;;;;;11.25;8.00;;;;;;;0.02;100.00;100769.03;5044557;28;20090;-59
2023/12/04 07:16:20;;;;;;;12.73;8.25;;;;;;;0.01;100.00;100773.41;5041552;28;20029;-59
2023/12/04 07:18:45;;;;;;;13.38;8.82;;;;;;;0.02;100.00;100769.91;5043367;28;20060;-59
2023/12/04 07:21:11;;;;;;;11.02;7.88;;;;;;;-0.01;100.00;100768.25;5043479;28;20048;-59
2023/12/04 07:23:36;;;;;;;10.18;7.60;;;;;;;-0.01;100.00;100768.25;5044003;28;20033;-59
2023/12/04 07:26:02;;;;;;;18.92;8.43;;;;;;;0.00;100.00;100769.13;5043497;28;20032;-59
2023/12/04 07:28:27;;;;;;;15.18;8.00;;;;;;;-0.01;100.00;100767.41;5045753;28;20581;-59
2023/12/04 07:30:54;;;;;;;13.43;8.27;;;;;;;-0.03;100.00;100759.63;5044321;28;20037;-58
2023/12/04 07:33:20;;;;;;;11.52;8.30;;;;;;;-0.01;100.00;100767.41;5044431;28;20470;-58
2023/12/04 07:35:45;;;;;;;10.70;6.90;;;;;;;0.00;100.00;100766.50;5046549;28;20124;-60
2023/12/04 07:38:10;;;;;;;13.43;7.68;;;;;;;-0.01;100.00;100768.25;5048004;28;20310;-59
2023/12/04 07:40:35;;;;;;;13.40;8.40;;;;;;;0.00;100.00;100771.72;5045839;28;20021;-60
2023/12/04 07:43:02;;;;;;;11.05;7.32;;;;;;;-0.01;100.00;100764.78;5048522;28;20482;-58
2023/12/04 07:45:27;;;;;;;11.88;7.32;;;;;;;-0.03;100.00;100762.22;5044063;28;20025;-59
2023/12/04 07:47:52;;;;;;;11.38;7.50;;;;;;;0.00;100.00;100758.66;5044830;28;20098;-58
2023/12/04 07:50:18;;;;;;;11.05;7.68;;;;;;;-0.01;100.00;100762.19;5043822;28;20032;-58
2023/12/04 07:52:43;;;;;;;11.55;7.22;;;;;;;0.03;100.00;100762.91;5049341;28;20029;-59
2023/12/04 07:55:08;;;;;;;13.55;7.47;;;;;;;0.02;99.78;100756.84;5046556;28;20074;-59
2023/12/04 07:57:33;;;;;;;10.30;7.10;;;;;;;0.01;99.86;100747.31;5046362;28;20072;-59
2023/12/04 07:59:59;;;;;;;11.95;7.45;;;;;;;0.03;99.32;100752.47;5045669;28;20026;-59
2023/12/04 08:02:24;;;;;;;12.10;7.57;;;;;;;0.01;99.56;100743.84;5045514;28;20068;-59
2023/12/04 08:04:49;;;;;;;15.80;7.80;;;;;;;0.01;98.98;100743.84;5042873;28;20025;-59
2023/12/04 08:07:15;;;;;;;9.88;7.32;;;;;;;0.01;98.37;100736.00;5049128;28;20032;-59
2023/12/04 08:09:41;;;;;;;11.48;6.80;;;;;;;0.03;98.55;100735.03;5043546;28;20084;-59
2023/12/04 08:12:06;;;;;;;12.20;6.80;;;;;;;0.04;98.59;100731.53;5043681;28;20817;-59
2023/12/04 08:14:32;;;;;;;10.88;7.10;;;;;;;0.02;98.25;100733.34;5047152;28;20025;-60
2023/12/04 08:16:58;;;;;;;12.35;7.45;;;;;;;0.04;97.88;100736.75;5046972;28;20025;-60
2023/12/04 08:19:23;;;;;;;9.80;6.50;;;;;;;0.05;98.42;100735.00;5048033;28;20021;-60
2023/12/04 08:21:49;;;;;;;10.57;7.05;;;;;;;0.04;97.64;100734.16;5046483;28;20112;-59
2023/12/04 08:24:17;;;;;;;10.20;7.20;;;;;;;0.07;96.75;100736.66;5039542;28;20470;-59
2023/12/04 08:26:42;;;;;;;11.52;7.20;;;;;;;0.07;97.01;100726.22;5036853;28;20394;-59
2023/12/04 08:29:07;;;;;;;11.63;6.95;;;;;;;0.07;96.35;100721.00;5046949;28;20037;-60
2023/12/04 08:31:32;;;;;;;10.85;6.97;;;;;;;0.07;96.66;100723.59;5042990;28;20021;-59
2023/12/04 08:33:58;;;;;;;9.70;6.75;;;;;;;0.06;96.88;100716.66;5045299;28;20434;-60
2023/12/04 08:36:23;;;;;;;9.73;6.95;;;;;;;0.07;96.50;100710.53;5046248;28;20021;-60
2023/12/04 08:38:48;;;;;;;11.85;7.00;;;;;;;0.09;97.36;100710.50;5039488;28;20478;-60
2023/12/04 08:41:14;;;;;;;8.90;6.60;;;;;;;0.09;97.17;100698.28;5041343;28;20028;-59
2023/12/04 08:43:39;;;;;;;8.98;6.47;;;;;;;0.10;96.38;100699.13;5043698;28;20035;-60
2023/12/04 08:46:04;;;;;;;9.40;6.30;;;;;;;0.09;96.54;100684.38;5043581;28;20036;-60
2023/12/04 08:48:29;;;;;;;9.90;6.35;;;;;;;0.12;96.18;100684.28;5043621;28;20098;-60
2023/12/04 08:50:55;;;;;;;9.82;6.78;;;;;;;0.10;95.52;100680.84;5041303;28;20429;-60
2023/12/04 08:53:20;;;;;;;9.68;7.13;;;;;;;0.11;96.51;100680.78;5043385;28;20475;-56
2023/12/04 08:55:46;;;;;;;11.18;6.78;;;;;;;0.14;95.30;100680.69;5044639;28;20020;-59
2023/12/04 08:58:12;;;;;;;10.90;6.72;;;;;;;0.13;95.79;100671.16;5042177;28;20091;-59
2023/12/04 09:00:42;;;;;;;9.90;6.68;;;;;;;0.14;95.90;100675.47;5046445;28;20505;-59
2023/12/04 09:03:07;;;;;;;11.48;6.80;;;;;;;0.15;95.48;100671.94;5047779;28;20130;-59
2023/12/04 09:05:33;;;;;;;8.07;6.68;;;;;;;0.18;95.70;100677.06;5046739;28;20114;-59
2023/12/04 09:07:58;;;;;;;9.07;6.50;;;;;;;0.21;95.33;100680.47;5046658;28;20048;-59
2023/12/04 09:10:24;;;;;;;10.07;7.18;;;;;;;0.21;95.16;100677.84;5046751;28;20056;-60
2023/12/04 09:12:49;;;;;;;10.27;7.10;;;;;;;0.20;95.08;100663.94;5045360;28;20023;-60
2023/12/04 09:15:14;;;;;;;12.55;7.30;;;;;;;0.22;95.01;100672.56;5051287;28;20068;-59
2023/12/04 09:17:40;;;;;;;7.72;6.00;;;;;;;0.25;94.72;100675.09;5046213;28;20394;-59
2023/12/04 09:20:06;;;;;;;8.73;6.60;;;;;;;0.25;95.00;100667.25;5049250;28;20032;-59
2023/12/04 09:22:31;;;;;;;8.93;6.55;;;;;;;0.25;94.67;100671.59;5052939;28;20025;-60
2023/12/04 09:24:57;;;;;;;9.45;6.90;;;;;;;0.28;95.38;100664.50;5047277;28;20033;-61
2023/12/04 09:27:22;;;;;;;8.85;6.35;;;;;;;0.28;94.71;100655.81;5042871;28;20068;-59
2023/12/04 09:29:47;;;;;;;12.82;6.30;;;;;;;0.29;95.04;100666.22;5046610;28;20022;-59
2023/12/04 09:32:13;;;;;;;11.27;6.65;;;;;;;0.32;95.15;100662.66;5046475;28;20082;-60
2023/12/04 09:34:38;;;;;;;7.47;6.00;;;;;;;0.32;94.70;100666.09;5054787;28;20408;-59
2023/12/04 09:37:03;;;;;;;12.18;7.40;;;;;;;0.32;94.82;100676.56;5049697;28;20112;-60
2023/12/04 09:39:29;;;;;;;9.93;6.15;;;;;;;0.34;94.57;100663.44;5050704;28;20401;-60
2023/12/04 09:41:55;;;;;;;10.95;6.07;;;;;;;0.36;95.26;100670.28;5044021;28;20067;-61
2023/12/04 09:44:22;;;;;;;9.13;6.45;;;;;;;0.38;94.88;100669.41;5046146;28;20033;-60
2023/12/04 09:46:47;;;;;;;17.25;7.25;;;;;;;0.40;95.56;100665.84;5049673;28;20020;-60
2023/12/04 09:49:14;;;;;;;14.30;6.70;;;;;;;0.42;95.26;100668.34;5049363;28;20025;-59
2023/12/04 09:51:39;;;;;;;11.75;6.85;;;;;;;0.43;94.00;100665.69;5051968;28;20028;-60
2023/12/04 09:54:06;;;;;;;11.15;6.85;;;;;;;0.43;93.25;100652.63;5041361;28;20497;-60
2023/12/04 09:56:34;;;;;;;10.30;7.18;;;;;;;0.46;93.75;100654.28;5043244;28;20028;-60
2023/12/04 09:59:00;;;;;;;8.15;6.32;;;;;;;0.48;94.20;100661.16;5048925;28;20502;-60
2023/12/04 10:01:29;;;;;;;9.25;6.38;;;;;;;0.49;93.88;100655.00;5045651;28;20123;-58
2023/12/04 10:03:57;;;;;;;8.88;7.05;;;;;;;0.50;93.67;100658.47;5044636;28;20036;-59
2023/12/04 10:06:26;;;;;;;9.18;6.82;;;;;;;0.50;93.70;100655.84;5045643;28;20025;-59
2023/12/04 10:08:51;;;;;;;9.80;6.97;;;;;;;0.50;93.46;100648.88;5047282;28;20036;-59
2023/12/04 10:11:17;;;;;;;10.63;6.68;;;;;;;0.52;93.55;100647.06;5043924;28;20025;-60
2023/12/04 10:13:42;;;;;;;11.02;7.35;;;;;;;0.52;93.74;100639.22;5042799;28;20033;-60
2023/12/04 10:16:08;;;;;;;9.50;6.75;;;;;;;0.53;94.22;100638.31;5047855;28;20100;-60
2023/12/04 10:18:33;;;;;;;9.30;7.03;;;;;;;0.54;93.26;100640.00;5045429;28;20037;-60
2023/12/04 10:20:59;;;;;;;10.25;6.82;;;;;;;0.55;93.78;100633.88;5047469;28;20108;-59
2023/12/04 10:23:40;;;;;;;13.23;7.82;;;;;;;0.58;93.98;100626.84;5043190;28;20474;-60
2023/12/04 10:26:07;;;;;;;12.00;7.13;;;;;;;0.58;93.56;100616.38;5043394;28;20025;-60
2023/12/04 10:28:33;;;;;;;12.60;7.43;;;;;;;0.61;93.31;100611.03;5049703;28;20277;-60
2023/12/04 10:30:58;;;;;;;10.73;7.00;;;;;;;0.62;93.65;100599.69;5047807;28;20029;-60
2023/12/04 10:33:29;;;;;;;13.02;7.90;;;;;;;0.64;92.98;100600.47;5049731;28;20024;-59
2023/12/04 10:35:55;;;;;;;11.20;7.90;;;;;;;0.70;93.07;100595.84;5047933;28;20496;-60
2023/12/04 10:38:20;;;;;;;9.52;7.38;;;;;;;0.69;92.94;100591.53;5049685;28;20029;-59
2023/12/04 10:40:46;;;;;;;11.35;8.05;;;;;;;0.70;93.24;100590.63;5050131;28;20541;-60
2023/12/04 10:43:15;;;;;;;12.40;7.43;;;;;;;0.72;92.27;100578.34;5048368;28;20028;-60
2023/12/04 10:45:42;;;;;;;12.43;8.02;;;;;;;0.73;92.81;100579.19;5049447;28;20433;-60
2023/12/04 10:48:08;;;;;;;9.45;7.65;;;;;;;0.76;93.61;100583.44;5050473;28;20021;-60
2023/12/04 10:50:35;;;;;;;10.70;8.23;;;;;;;0.78;92.95;100577.22;5046405;28;20028;-59
2023/12/04 10:53:04;;;;;;;14.07;8.73;;;;;;;0.81;92.07;100561.41;5047345;28;20083;-60
2023/12/04 10:55:30;;;;;;;12.27;8.68;;;;;;;0.83;92.87;100559.59;5047803;28;20044;-58
2023/12/04 10:57:56;;;;;;;11.80;8.13;;;;;;;0.84;92.85;100550.84;5043136;28;20045;-59
2023/12/04 11:00:22;;;;;;;11.85;8.55;;;;;;;0.88;93.45;100548.94;5048883;28;20496;-59
2023/12/04 11:02:49;;;;;;;12.02;8.02;;;;;;;0.92;92.20;100554.00;5048800;28;20394;-60
2023/12/04 11:05:21;;;;;;;11.88;9.25;;;;;;;0.95;92.87;100546.94;5035742;28;20380;-59
2023/12/04 11:08:01;;;;;;;11.85;8.45;;;;;;;0.99;93.21;100536.28;5047279;28;20029;-60